CheckWX is a tool to help pilots better visualize weather data.  It is not intended as a substitute for an official pre-flight weather briefing.

03:13:42 UTC

KMNM METAR
Menominee-Marinette Twin County Airport
Menominee, Michigan, USA
Current

18 mins ago

KMNM 230256Z AUTO 00000KT 10SM FEW120 18/17 A2978 RMK AO2 SLP083 T01780172 50003 $
Observed
Sep-23 @ 02:56 UTC
Visibility
10 SM
Flight Rules
VFR
Cloud Levels
  • Few at 12,000' AGL
Temperature
18°C / 64°F
Dewpoint
17°C / 63°F
Humidity
94%
Altimeter
29.78" Hg
Pressure
1008.42 hPa
Previous

39 mins ago

KMNM 230235Z AUTO 00000KT 3SM BR CLR 18/17 A2979 RMK AO2 $
Observed
Sep-23 @ 02:35 UTC
Visibility
3 SM
Flight Rules
MVFR
Conditions
Mist
Cloud Levels
  • Clear skies
Temperature
18°C / 64°F
Dewpoint
17°C / 63°F
Humidity
94%
Altimeter
29.79" Hg
Pressure
1008.82 hPa
Previous

51 mins ago

KMNM 230223Z AUTO 00000KT 1 3/4SM BR CLR 18/17 A2979 RMK AO2 $
Observed
Sep-23 @ 02:23 UTC
Visibility
1 3/4 SM
Flight Rules
IFR
Conditions
Mist
Cloud Levels
  • Clear skies
Temperature
18°C / 64°F
Dewpoint
17°C / 63°F
Humidity
94%
Altimeter
29.79" Hg
Pressure
1008.82 hPa